createdAt,value
2018-09-27T00:00:16.553Z,977.74
2018-09-27T00:01:16.541Z,977.73
2018-09-27T00:02:16.539Z,977.72
2018-09-27T00:03:16.536Z,977.67
2018-09-27T00:04:16.534Z,977.68
2018-09-27T00:05:16.530Z,977.69
2018-09-27T00:06:16.535Z,977.65
2018-09-27T00:07:16.523Z,977.62
2018-09-27T00:08:16.522Z,977.58
2018-09-27T00:09:16.519Z,977.54
2018-09-27T00:10:16.516Z,977.55
2018-09-27T00:11:16.514Z,977.53
2018-09-27T00:12:16.510Z,977.46
2018-09-27T00:13:16.509Z,977.44
2018-09-27T00:14:16.506Z,977.42
2018-09-27T00:15:16.504Z,977.39
2018-09-27T00:16:16.497Z,977.41
2018-09-27T00:17:16.497Z,977.40
2018-09-27T00:18:16.495Z,977.33
2018-09-27T00:19:16.492Z,977.34
2018-09-27T00:20:16.493Z,977.28
2018-09-27T00:21:16.488Z,977.33
2018-09-27T00:22:16.485Z,977.29
2018-09-27T00:23:16.492Z,977.24
2018-09-27T00:24:16.483Z,977.23
2018-09-27T00:25:16.476Z,977.29
2018-09-27T00:26:16.475Z,977.30
2018-09-27T00:27:16.473Z,977.29
2018-09-27T00:28:16.469Z,977.32
2018-09-27T00:29:16.466Z,977.29
2018-09-27T00:30:16.465Z,977.27
2018-09-27T00:31:16.462Z,977.35
2018-09-27T00:32:16.459Z,977.32
2018-09-27T00:33:16.458Z,977.30
2018-09-27T00:34:16.455Z,977.25
2018-09-27T00:35:16.487Z,977.23
2018-09-27T00:36:16.448Z,977.22
2018-09-27T00:37:16.553Z,977.25
2018-09-27T00:38:16.444Z,977.30
2018-09-27T00:39:16.443Z,977.34
2018-09-27T00:40:16.443Z,977.36
2018-09-27T00:41:16.436Z,977.34
2018-09-27T00:42:16.434Z,977.34
2018-09-27T00:43:16.432Z,977.29
2018-09-27T00:44:16.449Z,977.30
2018-09-27T00:45:16.429Z,977.28
2018-09-27T00:46:16.424Z,977.31
2018-09-27T00:47:16.419Z,977.29
2018-09-27T00:48:16.420Z,977.33
2018-09-27T00:49:16.414Z,977.34
2018-09-27T00:50:16.414Z,977.39
2018-09-27T00:51:16.427Z,977.38
2018-09-27T00:52:16.411Z,977.36
2018-09-27T00:53:16.411Z,977.40
2018-09-27T00:54:16.404Z,977.40
2018-09-27T00:55:16.402Z,977.40
2018-09-27T00:56:16.397Z,977.46
2018-09-27T00:57:16.395Z,977.47
2018-09-27T00:58:16.393Z,977.49
2018-09-27T00:59:16.391Z,977.50
2018-09-27T01:00:16.389Z,977.46
2018-09-27T01:01:16.391Z,977.46
2018-09-27T01:02:16.389Z,977.47
2018-09-27T01:03:16.386Z,977.46
2018-09-27T01:04:16.379Z,977.45
2018-09-27T01:05:16.388Z,977.44
2018-09-27T01:06:16.395Z,977.45
2018-09-27T01:07:16.375Z,977.46
2018-09-27T01:08:16.371Z,977.46
2018-09-27T01:09:16.366Z,977.39
2018-09-27T01:10:16.373Z,977.40
2018-09-27T01:11:16.362Z,977.40
2018-09-27T01:12:16.363Z,977.37
2018-09-27T01:13:16.358Z,977.40
2018-09-27T01:14:16.355Z,977.40
2018-09-27T01:15:16.362Z,977.38
2018-09-27T01:16:16.353Z,977.43
2018-09-27T01:17:16.350Z,977.45
2018-09-27T01:18:16.348Z,977.45
2018-09-27T01:19:16.362Z,977.45
2018-09-27T01:20:16.352Z,977.47
2018-09-27T01:21:16.339Z,977.43
2018-09-27T01:22:16.335Z,977.47
2018-09-27T01:23:16.334Z,977.37
2018-09-27T01:24:16.330Z,977.40
2018-09-27T01:25:16.329Z,977.40
2018-09-27T01:26:16.325Z,977.38
2018-09-27T01:27:16.323Z,977.39
2018-09-27T01:28:16.321Z,977.37
2018-09-27T01:29:16.317Z,977.36
2018-09-27T01:30:16.330Z,977.33
2018-09-27T01:31:16.313Z,977.36
2018-09-27T01:32:16.308Z,977.33
2018-09-27T01:33:16.307Z,977.35
2018-09-27T01:34:16.304Z,977.34
2018-09-27T01:35:16.299Z,977.30
2018-09-27T01:36:16.297Z,977.28
2018-09-27T01:37:16.308Z,977.27
2018-09-27T01:38:16.300Z,977.30
2018-09-27T01:39:16.297Z,977.31
2018-09-27T01:40:16.289Z,977.32
2018-09-27T01:41:16.321Z,977.28
2018-09-27T01:42:16.300Z,977.29
2018-09-27T01:43:16.285Z,977.31
2018-09-27T01:44:16.278Z,977.32
2018-09-27T01:45:16.274Z,977.33
2018-09-27T01:46:16.272Z,977.34
2018-09-27T01:47:16.271Z,977.33
2018-09-27T01:48:16.275Z,977.35
2018-09-27T01:49:16.264Z,977.34
2018-09-27T01:50:16.260Z,977.32
2018-09-27T01:51:16.260Z,977.27
2018-09-27T01:52:16.255Z,977.24
2018-09-27T01:53:16.279Z,977.25
2018-09-27T01:54:16.251Z,977.23
2018-09-27T01:55:16.248Z,977.27
2018-09-27T01:56:16.244Z,977.26
2018-09-27T01:57:16.251Z,977.27
2018-09-27T01:58:16.238Z,977.23
2018-09-27T01:59:16.236Z,977.20
2018-09-27T02:00:16.232Z,977.18
2018-09-27T02:01:16.229Z,977.14
2018-09-27T02:02:16.234Z,977.14
2018-09-27T02:03:16.225Z,977.13
2018-09-27T02:04:16.221Z,977.15
2018-09-27T02:05:16.221Z,977.16
2018-09-27T02:06:16.213Z,977.14
2018-09-27T02:07:16.211Z,977.16
2018-09-27T02:08:16.212Z,977.15
2018-09-27T02:09:16.204Z,977.15
2018-09-27T02:10:16.204Z,977.12
2018-09-27T02:11:16.202Z,977.13
2018-09-27T02:12:16.196Z,977.14
2018-09-27T02:13:16.198Z,977.18
2018-09-27T02:14:16.192Z,977.16
2018-09-27T02:15:16.189Z,977.17
2018-09-27T02:16:16.238Z,977.16
2018-09-27T02:17:16.179Z,977.22
2018-09-27T02:18:16.179Z,977.17
2018-09-27T02:19:16.196Z,977.16
2018-09-27T02:20:16.172Z,977.15
2018-09-27T02:21:16.169Z,977.21
2018-09-27T02:22:16.166Z,977.14
2018-09-27T02:23:16.161Z,977.17
2018-09-27T02:24:16.167Z,977.14
2018-09-27T02:25:16.153Z,977.15
2018-09-27T02:26:16.153Z,977.13
2018-09-27T02:27:16.150Z,977.11
2018-09-27T02:28:16.146Z,977.09
2018-09-27T02:29:16.144Z,977.05
2018-09-27T02:30:16.146Z,977.05
2018-09-27T02:31:16.134Z,977.05
2018-09-27T02:32:16.131Z,977.04
2018-09-27T02:33:16.127Z,977.02
2018-09-27T02:34:16.152Z,977.02
2018-09-27T02:35:16.122Z,977.00
2018-09-27T02:36:16.117Z,976.92
2018-09-27T02:37:16.117Z,976.96
2018-09-27T02:38:16.152Z,976.92
2018-09-27T02:39:16.110Z,976.93
2018-09-27T02:40:16.106Z,976.91
2018-09-27T02:41:16.100Z,976.93
2018-09-27T02:42:16.100Z,976.92
2018-09-27T02:43:16.095Z,976.87
2018-09-27T02:44:16.091Z,976.87
2018-09-27T02:45:16.088Z,976.81
2018-09-27T02:46:16.084Z,976.77
2018-09-27T02:47:16.082Z,976.75
2018-09-27T02:48:16.076Z,976.80
2018-09-27T02:49:16.089Z,976.76
2018-09-27T02:50:16.078Z,976.77
2018-09-27T02:51:16.077Z,976.80
2018-09-27T02:52:16.063Z,976.80
2018-09-27T02:53:16.057Z,976.86
2018-09-27T02:54:16.057Z,976.82
2018-09-27T02:55:16.054Z,976.82
2018-09-27T02:56:16.049Z,976.86
2018-09-27T02:57:16.045Z,976.83
2018-09-27T02:58:16.042Z,976.87
2018-09-27T02:59:16.040Z,976.91
2018-09-27T03:00:16.042Z,976.91
2018-09-27T03:01:16.031Z,976.92
2018-09-27T03:02:16.030Z,976.88
2018-09-27T03:03:16.026Z,976.90
2018-09-27T03:04:16.022Z,976.90
2018-09-27T03:05:16.024Z,976.91
2018-09-27T03:08:09.461Z,976.96
2018-09-27T03:08:48.170Z,976.98
2018-09-27T03:10:41.295Z,976.96
2018-09-27T03:11:40.996Z,976.93
2018-09-27T03:13:34.133Z,976.91
2018-09-27T03:14:33.895Z,976.95
2018-09-27T03:16:27.055Z,976.95
2018-09-27T03:17:26.692Z,976.89
2018-09-27T03:19:19.914Z,976.85
2018-09-27T03:20:19.558Z,976.85
2018-09-27T03:22:12.732Z,976.81
2018-09-27T03:23:20.882Z,976.82
2018-09-27T03:25:06.217Z,976.76
2018-09-27T03:26:06.144Z,976.74
2018-09-27T03:27:58.975Z,976.75
2018-09-27T03:28:59.065Z,976.73
2018-09-27T03:30:51.945Z,976.69
2018-09-27T03:31:51.588Z,976.71
2018-09-27T03:33:44.767Z,976.71
2018-09-27T03:34:44.582Z,976.74
2018-09-27T03:36:37.632Z,976.72
2018-09-27T03:37:37.291Z,976.74
2018-09-27T03:38:37.285Z,976.71
2018-09-27T03:39:37.440Z,976.75
2018-09-27T03:40:37.684Z,976.73
2018-09-27T03:41:37.250Z,976.73
2018-09-27T03:42:37.265Z,976.75
2018-09-27T03:43:37.242Z,976.70
2018-09-27T03:44:37.238Z,976.67
2018-09-27T03:45:37.246Z,976.70
2018-09-27T03:46:37.231Z,976.67
2018-09-27T03:47:37.229Z,976.70
2018-09-27T03:48:37.231Z,976.70
2018-09-27T03:49:37.220Z,976.65
2018-09-27T03:50:37.218Z,976.70
2018-09-27T03:51:37.212Z,976.68
2018-09-27T03:52:37.207Z,976.69
2018-09-27T03:53:37.205Z,976.66
2018-09-27T03:54:37.204Z,976.64
2018-09-27T03:55:37.205Z,976.63
2018-09-27T03:56:37.195Z,976.64
2018-09-27T03:57:37.201Z,976.62
2018-09-27T03:58:37.191Z,976.59
2018-09-27T03:59:37.196Z,976.58
2018-09-27T04:00:37.181Z,976.61
2018-09-27T04:01:37.176Z,976.61
2018-09-27T04:02:37.171Z,976.61
2018-09-27T04:03:37.169Z,976.59
2018-09-27T04:04:37.177Z,976.59
2018-09-27T04:05:37.160Z,976.61
2018-09-27T04:06:37.158Z,976.56
2018-09-27T04:07:37.598Z,976.59
2018-09-27T04:08:37.149Z,976.58
2018-09-27T04:09:37.145Z,976.55
2018-09-27T04:10:37.140Z,976.54
2018-09-27T04:11:37.139Z,976.53
2018-09-27T04:12:37.173Z,976.47
2018-09-27T04:13:37.133Z,976.52
2018-09-27T04:14:57.481Z,976.52
2018-09-27T04:15:56.200Z,976.55
2018-09-27T04:17:49.747Z,976.49
2018-09-27T04:18:50.972Z,976.48
2018-09-27T04:20:42.603Z,976.46
2018-09-27T04:21:42.424Z,976.44
2018-09-27T04:23:35.423Z,976.41
2018-09-27T04:24:36.777Z,976.40
2018-09-27T04:26:28.515Z,976.35
2018-09-27T04:27:28.370Z,976.34
2018-09-27T04:29:21.448Z,976.35
2018-09-27T04:30:21.339Z,976.32
2018-09-27T04:32:14.772Z,976.33
2018-09-27T04:33:15.072Z,976.34
2018-09-27T04:35:08.309Z,976.32
2018-09-27T04:36:08.050Z,976.34
2018-09-27T04:38:01.496Z,976.38
2018-09-27T04:39:08.819Z,976.43
2018-09-27T04:40:55.942Z,976.38
2018-09-27T04:41:58.383Z,976.40
2018-09-27T04:43:48.561Z,976.39
2018-09-27T04:44:55.492Z,976.42
2018-09-27T04:46:41.320Z,976.41
2018-09-27T04:47:41.060Z,976.41
2018-09-27T04:49:34.047Z,976.43
2018-09-27T04:50:33.828Z,976.41
2018-09-27T04:52:27.918Z,976.42
2018-09-27T04:53:27.884Z,976.49
2018-09-27T04:55:20.214Z,976.50
2018-09-27T04:56:19.566Z,976.49
2018-09-27T04:58:13.100Z,976.46
2018-09-27T04:59:13.489Z,976.45
2018-09-27T05:01:06.464Z,976.45
2018-09-27T05:02:13.700Z,976.48
2018-09-27T05:03:59.770Z,976.46
2018-09-27T05:04:59.980Z,976.40
2018-09-27T05:06:53.252Z,976.43
2018-09-27T05:07:52.549Z,976.39
2018-09-27T05:09:45.850Z,976.42
2018-09-27T05:10:45.643Z,976.42
2018-09-27T05:12:38.832Z,976.44
2018-09-27T05:13:38.628Z,976.39
2018-09-27T05:15:32.339Z,976.40
2018-09-27T05:16:31.773Z,976.38
2018-09-27T05:18:24.499Z,976.39
2018-09-27T05:19:31.502Z,976.35
2018-09-27T05:21:17.729Z,976.37
2018-09-27T05:22:17.794Z,976.35
2018-09-27T05:24:11.070Z,976.38
2018-09-27T05:25:10.940Z,976.38
2018-09-27T05:27:04.054Z,976.35
2018-09-27T05:28:03.857Z,976.29
2018-09-27T05:29:56.796Z,976.32
2018-09-27T05:30:56.642Z,976.31
2018-09-27T05:32:49.737Z,976.38
2018-09-27T05:33:49.476Z,976.35
2018-09-27T05:35:42.530Z,976.33
2018-09-27T05:36:42.408Z,976.40
2018-09-27T05:37:42.316Z,976.37
2018-09-27T05:38:42.429Z,976.41
2018-09-27T05:39:42.326Z,976.43
2018-09-27T05:40:42.286Z,976.43
2018-09-27T05:41:42.289Z,976.40
2018-09-27T05:42:42.283Z,976.38
2018-09-27T05:43:42.282Z,976.44
2018-09-27T05:44:42.276Z,976.44
2018-09-27T05:45:42.327Z,976.43
2018-09-27T05:46:42.271Z,976.50
2018-09-27T05:47:42.270Z,976.48
2018-09-27T05:48:42.263Z,976.41
2018-09-27T05:49:42.259Z,976.50
2018-09-27T05:50:42.253Z,976.51
2018-09-27T05:51:42.344Z,976.52
2018-09-27T05:52:42.250Z,976.47
2018-09-27T05:53:42.245Z,976.48
2018-09-27T05:54:42.243Z,976.49
2018-09-27T05:55:42.268Z,976.50
2018-09-27T05:56:42.266Z,976.49
2018-09-27T05:57:42.320Z,976.53
2018-09-27T05:58:51.196Z,976.52
2018-09-27T06:00:35.371Z,976.54
2018-09-27T06:01:35.192Z,976.49
2018-09-27T06:03:28.395Z,976.53
2018-09-27T06:04:28.755Z,976.53
2018-09-27T06:06:20.903Z,976.52
2018-09-27T06:07:20.863Z,976.49
2018-09-27T06:09:13.846Z,976.53
2018-09-27T06:10:13.765Z,976.57
2018-09-27T06:11:16.313Z,976.56
2018-09-27T06:12:13.868Z,976.57
2018-09-27T06:13:13.726Z,976.57
2018-09-27T06:14:13.727Z,976.55
2018-09-27T06:15:13.731Z,976.58
2018-09-27T06:16:20.970Z,976.54
2018-09-27T06:18:07.173Z,976.58
2018-09-27T06:19:07.083Z,976.57
2018-09-27T06:20:07.092Z,976.55
2018-09-27T06:21:07.185Z,976.57
2018-09-27T06:22:07.060Z,976.56
2018-09-27T06:23:07.057Z,976.55
2018-09-27T06:24:07.057Z,976.58
2018-09-27T06:25:07.054Z,976.58
2018-09-27T06:26:07.079Z,976.59
2018-09-27T06:27:07.074Z,976.60
2018-09-27T06:28:07.044Z,976.57
2018-09-27T06:29:07.041Z,976.61
2018-09-27T06:30:07.050Z,976.68
2018-09-27T06:31:09.632Z,976.67
2018-09-27T06:32:07.040Z,976.78
2018-09-27T06:33:07.032Z,976.77
2018-09-27T06:34:07.032Z,976.82
2018-09-27T06:35:07.098Z,976.81
2018-09-27T06:36:07.026Z,976.82
2018-09-27T06:37:07.069Z,976.87
2018-09-27T06:38:07.030Z,976.91
2018-09-27T06:39:07.024Z,976.94
2018-09-27T06:40:09.634Z,976.92
2018-09-27T06:41:07.024Z,976.97
2018-09-27T06:42:08.647Z,977.00
2018-09-27T06:43:07.025Z,977.13
2018-09-27T06:44:07.032Z,977.24
2018-09-27T06:45:07.032Z,977.37
2018-09-27T06:46:07.033Z,977.52
2018-09-27T06:47:07.039Z,977.60
2018-09-27T06:48:07.047Z,977.72
2018-09-27T06:49:07.082Z,977.77
2018-09-27T06:50:07.048Z,977.94
2018-09-27T06:51:07.051Z,978.34
2018-09-27T06:52:07.043Z,979.11
2018-09-27T06:53:07.050Z,979.44
2018-09-27T06:54:07.052Z,979.37
2018-09-27T06:55:07.338Z,979.29
2018-09-27T06:56:07.117Z,979.03
2018-09-27T06:57:07.068Z,978.75
2018-09-27T06:58:07.068Z,978.44
2018-09-27T06:59:07.072Z,978.25
2018-09-27T07:00:07.085Z,978.12
2018-09-27T07:01:07.086Z,977.95
2018-09-27T07:02:07.088Z,977.98
2018-09-27T07:03:07.168Z,978.00
2018-09-27T07:04:07.183Z,977.88
2018-09-27T07:05:07.103Z,977.80
2018-09-27T07:06:07.115Z,977.78
2018-09-27T07:07:07.157Z,977.79
2018-09-27T07:08:07.132Z,977.77
2018-09-27T07:09:07.126Z,977.75
2018-09-27T07:10:08.669Z,977.79
2018-09-27T07:11:07.145Z,977.81
2018-09-27T07:12:09.712Z,977.77
2018-09-27T07:13:07.148Z,977.85
2018-09-27T07:14:07.159Z,977.80
2018-09-27T07:15:07.162Z,977.76
2018-09-27T07:16:07.173Z,977.68
2018-09-27T07:17:07.215Z,977.56
2018-09-27T07:18:09.162Z,977.67
2018-09-27T07:19:07.187Z,977.47
2018-09-27T07:20:07.246Z,977.30
2018-09-27T07:21:07.235Z,977.59
2018-09-27T07:22:07.209Z,977.79
2018-09-27T07:23:07.215Z,977.88
2018-09-27T07:24:07.256Z,977.88
2018-09-27T07:25:07.259Z,977.80
2018-09-27T07:26:07.237Z,977.72
2018-09-27T07:27:07.246Z,977.82
2018-09-27T07:28:07.252Z,977.88
2018-09-27T07:29:07.260Z,977.85
2018-09-27T07:30:07.269Z,977.77
2018-09-27T07:31:07.356Z,977.88
2018-09-27T07:32:07.281Z,978.05
2018-09-27T07:33:07.290Z,978.16
2018-09-27T07:34:09.161Z,978.31
2018-09-27T07:35:07.302Z,978.57
2018-09-27T07:36:07.316Z,978.73
2018-09-27T07:37:10.150Z,978.67
2018-09-27T07:38:07.332Z,978.43
2018-09-27T07:39:07.347Z,978.16
2018-09-27T07:40:10.163Z,977.83
2018-09-27T07:41:07.357Z,977.65
2018-09-27T07:42:07.367Z,977.51
2018-09-27T07:43:07.373Z,977.44
2018-09-27T07:44:07.383Z,977.43
2018-09-27T07:45:07.425Z,977.43
2018-09-27T07:46:07.410Z,977.44
2018-09-27T07:47:07.413Z,977.44
2018-09-27T07:48:07.423Z,977.49
2018-09-27T07:49:07.432Z,977.81
2018-09-27T07:50:07.441Z,978.14
2018-09-27T07:51:07.451Z,978.34
2018-09-27T07:52:07.462Z,978.53
2018-09-27T07:53:07.473Z,978.65
2018-09-27T07:54:09.197Z,978.78
2018-09-27T07:55:09.164Z,978.80
2018-09-27T07:56:07.505Z,978.85
2018-09-27T07:57:07.526Z,978.84
2018-09-27T07:58:07.525Z,978.83
2018-09-27T07:59:07.532Z,978.86
2018-09-27T08:00:07.625Z,978.91
2018-09-27T08:01:07.558Z,978.81
2018-09-27T08:02:08.639Z,978.78
2018-09-27T08:03:07.686Z,978.80
2018-09-27T08:04:07.592Z,978.83
2018-09-27T08:05:07.604Z,978.85
2018-09-27T08:06:07.614Z,978.82
2018-09-27T08:07:07.623Z,978.81
2018-09-27T08:08:07.636Z,978.78
2018-09-27T08:09:07.650Z,978.73
2018-09-27T08:10:07.661Z,978.73
2018-09-27T08:11:07.771Z,978.65
2018-09-27T08:12:07.738Z,978.64
2018-09-27T08:13:07.706Z,978.71
2018-09-27T08:14:07.714Z,978.67
2018-09-27T08:15:07.814Z,978.70
2018-09-27T08:16:10.667Z,978.66
2018-09-27T08:17:07.801Z,978.63
2018-09-27T08:18:07.756Z,978.62
2018-09-27T08:19:07.771Z,978.63
2018-09-27T08:20:07.782Z,978.52
2018-09-27T08:21:09.769Z,978.47
2018-09-27T08:22:07.809Z,978.52
2018-09-27T08:23:07.821Z,978.57
2018-09-27T08:24:07.852Z,978.51
2018-09-27T08:25:07.847Z,978.54
2018-09-27T08:26:07.860Z,978.52
2018-09-27T08:27:07.873Z,978.49
2018-09-27T08:28:07.886Z,978.52
2018-09-27T08:29:07.900Z,978.51
2018-09-27T08:30:07.935Z,978.54
2018-09-27T08:31:07.946Z,978.54
2018-09-27T08:32:07.941Z,978.50
2018-09-27T08:33:07.953Z,978.52
2018-09-27T08:34:07.968Z,978.48
2018-09-27T08:35:07.984Z,978.48
2018-09-27T08:36:07.996Z,978.49
2018-09-27T08:37:08.013Z,978.53
2018-09-27T08:38:08.038Z,978.57
2018-09-27T08:39:08.032Z,978.64
2018-09-27T08:40:08.049Z,978.58
2018-09-27T08:41:08.064Z,978.62
2018-09-27T08:42:08.080Z,978.65
2018-09-27T08:43:08.198Z,978.67
2018-09-27T08:44:08.107Z,978.68
2018-09-27T08:45:08.250Z,978.65
2018-09-27T08:46:08.139Z,978.69
2018-09-27T08:47:08.146Z,978.66
2018-09-27T08:48:08.210Z,978.64
2018-09-27T08:49:08.181Z,978.64
2018-09-27T08:50:08.192Z,978.58
2018-09-27T08:51:08.208Z,978.56
2018-09-27T08:52:08.224Z,978.57
2018-09-27T08:53:08.240Z,978.49
2018-09-27T08:54:08.251Z,978.48
2018-09-27T08:55:08.266Z,978.50
2018-09-27T08:56:08.362Z,978.49
2018-09-27T08:57:08.302Z,978.51
2018-09-27T08:58:08.315Z,978.48
2018-09-27T08:59:08.328Z,978.50
2018-09-27T09:00:08.387Z,978.48
2018-09-27T09:01:08.356Z,978.39
2018-09-27T09:02:08.380Z,978.38
2018-09-27T09:03:08.384Z,978.41
2018-09-27T09:04:08.402Z,978.35
2018-09-27T09:05:08.416Z,978.31
2018-09-27T09:06:08.431Z,978.32
2018-09-27T09:07:08.444Z,978.29
2018-09-27T09:08:08.463Z,978.29
2018-09-27T09:09:08.475Z,978.26
2018-09-27T09:10:08.493Z,978.28
2018-09-27T09:11:08.514Z,978.26
2018-09-27T09:12:08.558Z,978.17
2018-09-27T09:13:08.542Z,978.13
2018-09-27T09:14:08.572Z,978.06
2018-09-27T09:15:08.587Z,978.06
2018-09-27T09:16:08.589Z,978.04
2018-09-27T09:17:08.606Z,978.01
2018-09-27T09:18:08.619Z,977.97
2018-09-27T09:19:08.638Z,977.96
2018-09-27T09:20:08.654Z,977.94
2018-09-27T09:21:08.689Z,977.91
2018-09-27T09:22:08.685Z,977.88
2018-09-27T09:23:08.705Z,977.87
2018-09-27T09:24:10.698Z,977.87
2018-09-27T09:25:08.738Z,977.85
2018-09-27T09:26:08.791Z,977.86
2018-09-27T09:27:11.687Z,977.86
2018-09-27T09:28:08.787Z,977.79
2018-09-27T09:29:08.809Z,977.78
2018-09-27T09:30:08.822Z,977.80
2018-09-27T09:31:08.840Z,977.80
2018-09-27T09:32:08.859Z,977.74
2018-09-27T09:33:08.876Z,977.73
2018-09-27T09:34:08.926Z,977.72
2018-09-27T09:35:08.910Z,977.70
2018-09-27T09:36:08.929Z,977.72
2018-09-27T09:37:08.946Z,977.71
2018-09-27T09:38:08.985Z,977.72
2018-09-27T09:39:11.692Z,977.79
2018-09-27T09:40:08.998Z,977.72
2018-09-27T09:41:09.024Z,977.71
2018-09-27T09:42:09.037Z,977.69
2018-09-27T09:43:09.054Z,977.62
2018-09-27T09:44:09.074Z,977.63
2018-09-27T09:45:09.105Z,977.59
2018-09-27T09:46:11.693Z,977.54
2018-09-27T09:47:09.124Z,977.52
2018-09-27T09:48:09.152Z,977.48
2018-09-27T09:49:11.725Z,977.02
2018-09-27T09:50:10.747Z,976.56
2018-09-27T09:51:09.204Z,976.50
2018-09-27T09:52:09.215Z,976.45
2018-09-27T09:53:09.250Z,976.47
2018-09-27T09:54:11.195Z,976.45
2018-09-27T09:55:09.270Z,976.40
2018-09-27T09:56:09.287Z,976.38
2018-09-27T09:57:09.304Z,976.37
2018-09-27T09:58:09.323Z,976.40
2018-09-27T09:59:09.398Z,976.36
2018-09-27T10:00:11.208Z,976.31
2018-09-27T10:01:09.369Z,976.28
2018-09-27T10:02:09.383Z,976.25
2018-09-27T10:03:09.396Z,976.20
2018-09-27T10:04:09.416Z,976.14
2018-09-27T10:05:09.431Z,976.17
2018-09-27T10:06:09.441Z,976.14
2018-09-27T10:07:09.453Z,976.17
2018-09-27T10:08:09.466Z,976.10
2018-09-27T10:09:09.477Z,976.06
2018-09-27T10:10:09.490Z,976.03
2018-09-27T10:11:09.503Z,976.01
2018-09-27T10:12:09.513Z,975.97
2018-09-27T10:13:09.523Z,975.93
2018-09-27T10:14:09.538Z,975.91
2018-09-27T10:15:09.546Z,975.92
2018-09-27T10:16:09.558Z,975.87
2018-09-27T10:17:09.575Z,975.88
2018-09-27T10:18:09.579Z,975.88
2018-09-27T10:19:09.588Z,975.85
2018-09-27T10:20:09.598Z,975.84
2018-09-27T10:21:09.608Z,975.84
2018-09-27T10:22:09.672Z,975.77
2018-09-27T10:23:09.636Z,975.79
2018-09-27T10:24:09.637Z,975.74
2018-09-27T10:25:09.644Z,975.73
2018-09-27T10:26:09.653Z,975.66
2018-09-27T10:27:09.666Z,975.65
2018-09-27T10:28:09.670Z,975.61
2018-09-27T10:29:09.681Z,975.58
2018-09-27T10:30:09.688Z,975.59
2018-09-27T10:31:09.701Z,975.55
2018-09-27T10:32:09.708Z,975.56
2018-09-27T10:33:09.716Z,975.49
2018-09-27T10:34:09.778Z,975.47
2018-09-27T10:35:09.730Z,975.49
2018-09-27T10:36:09.739Z,975.49
2018-09-27T10:37:09.752Z,975.45
2018-09-27T10:38:09.765Z,975.42
2018-09-27T10:39:09.764Z,975.37
2018-09-27T10:40:09.775Z,975.36
2018-09-27T10:41:09.890Z,975.36
2018-09-27T10:42:09.789Z,975.31
2018-09-27T10:43:09.796Z,975.30
2018-09-27T10:44:09.821Z,975.24
2018-09-27T10:45:09.811Z,975.28
2018-09-27T10:46:09.817Z,975.24
2018-09-27T10:47:09.828Z,975.22
2018-09-27T10:48:09.833Z,975.25
2018-09-27T10:49:09.858Z,975.18
2018-09-27T10:50:09.848Z,975.14
2018-09-27T10:51:09.877Z,975.16
2018-09-27T10:52:09.869Z,975.18
2018-09-27T10:53:09.873Z,975.18
2018-09-27T10:54:09.950Z,975.16
2018-09-27T10:55:09.943Z,975.15
2018-09-27T10:56:09.907Z,975.13
2018-09-27T10:57:09.965Z,975.10
2018-09-27T10:58:09.907Z,975.10
2018-09-27T10:59:09.938Z,975.09
2018-09-27T11:00:09.924Z,975.10
2018-09-27T11:01:09.931Z,975.08
2018-09-27T11:02:10.053Z,975.07
2018-09-27T11:03:09.991Z,975.07
2018-09-27T11:04:09.971Z,975.07
2018-09-27T11:05:09.958Z,975.05
2018-09-27T11:06:09.967Z,975.04
2018-09-27T11:07:09.997Z,974.98
2018-09-27T11:08:09.977Z,975.00
2018-09-27T11:09:09.984Z,974.97
2018-09-27T11:10:10.074Z,974.99
2018-09-27T11:11:10.077Z,974.94
2018-09-27T11:12:10.017Z,974.92
2018-09-27T11:13:10.015Z,974.94
2018-09-27T11:14:10.023Z,974.94
2018-09-27T11:15:10.028Z,974.92
2018-09-27T11:16:10.035Z,974.93
2018-09-27T11:17:10.041Z,974.94
2018-09-27T11:18:10.064Z,974.92
2018-09-27T11:19:10.058Z,974.86
2018-09-27T11:20:10.102Z,974.83
2018-09-27T11:21:10.069Z,974.85
2018-09-27T11:22:10.209Z,974.82
2018-09-27T11:23:10.082Z,974.81
2018-09-27T11:24:10.092Z,974.79
2018-09-27T11:25:10.096Z,974.84
2018-09-27T11:26:10.109Z,974.78
2018-09-27T11:27:10.114Z,974.79
2018-09-27T11:28:12.751Z,974.74
2018-09-27T11:29:10.200Z,974.73
2018-09-27T11:30:10.144Z,974.71
2018-09-27T11:31:10.143Z,974.70
2018-09-27T11:32:10.152Z,974.67
2018-09-27T11:33:10.213Z,974.64
2018-09-27T11:34:10.225Z,974.65
2018-09-27T11:35:10.168Z,974.63
2018-09-27T11:36:10.250Z,974.60
2018-09-27T11:37:10.209Z,974.54
2018-09-27T11:38:10.210Z,974.55
2018-09-27T11:39:10.198Z,974.57
2018-09-27T11:40:10.218Z,974.54
2018-09-27T11:41:10.216Z,974.53
2018-09-27T11:42:10.221Z,974.54
2018-09-27T11:43:10.228Z,974.53
2018-09-27T11:44:10.248Z,974.52
2018-09-27T11:45:10.246Z,974.49
2018-09-27T11:46:10.271Z,974.49
2018-09-27T11:47:10.256Z,974.48
2018-09-27T11:48:10.265Z,974.48
2018-09-27T11:49:10.403Z,974.46
2018-09-27T11:50:10.339Z,974.45
2018-09-27T11:51:10.292Z,974.40
2018-09-27T11:52:10.290Z,974.44
2018-09-27T11:53:10.297Z,974.40
2018-09-27T11:54:10.306Z,974.41
2018-09-27T11:55:10.377Z,974.38
2018-09-27T11:56:10.381Z,974.40
2018-09-27T11:57:10.327Z,974.39
2018-09-27T11:58:10.354Z,974.33
2018-09-27T11:59:12.461Z,974.32
2018-09-27T12:00:10.411Z,974.31
2018-09-27T12:02:32.084Z,974.27
2018-09-27T12:03:31.985Z,974.23
2018-09-27T12:05:25.088Z,974.25
2018-09-27T12:06:24.678Z,974.27
2018-09-27T12:08:18.606Z,974.27
2018-09-27T12:09:19.253Z,974.21
2018-09-27T12:11:16.645Z,974.21
2018-09-27T12:12:13.902Z,974.21
2018-09-27T12:14:09.297Z,974.17
2018-09-27T12:15:08.484Z,974.11
2018-09-27T12:17:04.714Z,974.12
2018-09-27T12:17:58.770Z,974.13
2018-09-27T12:19:55.290Z,974.06
2018-09-27T12:20:52.083Z,974.07
2018-09-27T12:22:49.894Z,974.04
2018-09-27T12:23:48.697Z,974.02
2018-09-27T12:25:51.821Z,973.97
2018-09-27T12:26:39.059Z,974.04
2018-09-27T12:28:32.084Z,974.01
2018-09-27T12:29:32.642Z,974.03
2018-09-27T12:31:25.048Z,974.02
2018-09-27T12:32:24.964Z,974.01
2018-09-27T12:34:18.256Z,974.05
2018-09-27T12:35:18.254Z,974.02
2018-09-27T12:37:12.224Z,973.98
2018-09-27T12:38:11.585Z,974.02
2018-09-27T12:40:05.298Z,973.99
2018-09-27T12:41:05.124Z,973.98
2018-09-27T12:42:58.201Z,973.93
2018-09-27T12:43:58.094Z,973.89
2018-09-27T12:45:50.959Z,973.84
2018-09-27T12:46:51.074Z,973.83
2018-09-27T12:48:43.812Z,973.80
2018-09-27T12:49:43.725Z,973.81
2018-09-27T12:51:36.825Z,973.76
2018-09-27T12:52:36.720Z,973.73
2018-09-27T12:54:29.492Z,973.67
2018-09-27T12:55:29.393Z,973.70
2018-09-27T12:57:22.510Z,973.67
2018-09-27T12:58:22.901Z,973.62
2018-09-27T12:59:23.620Z,973.62
2018-09-27T13:00:22.803Z,973.60
2018-09-27T13:01:22.251Z,973.57
2018-09-27T13:02:22.287Z,973.52
2018-09-27T13:03:22.193Z,973.49
2018-09-27T13:04:22.196Z,973.51
2018-09-27T13:05:22.422Z,973.49
2018-09-27T13:06:22.278Z,973.52
2018-09-27T13:07:22.223Z,973.48
2018-09-27T13:08:22.274Z,973.42
2018-09-27T13:09:22.763Z,973.45
2018-09-27T13:10:22.271Z,973.43
2018-09-27T13:11:22.240Z,973.45
2018-09-27T13:12:22.279Z,973.43
2018-09-27T13:13:22.489Z,973.41
2018-09-27T13:14:22.294Z,973.43
2018-09-27T13:15:22.324Z,973.41
2018-09-27T13:16:22.373Z,973.39
2018-09-27T13:17:22.303Z,973.35
2018-09-27T13:18:22.287Z,973.35
2018-09-27T13:19:22.315Z,973.34
2018-09-27T13:20:22.421Z,973.32
2018-09-27T13:21:22.352Z,973.28
2018-09-27T13:22:22.310Z,973.25
2018-09-27T13:23:22.395Z,973.24
2018-09-27T13:24:22.378Z,973.18
2018-09-27T13:25:22.358Z,973.19
2018-09-27T13:26:22.344Z,973.19